createdAt,value
2018-03-28T00:00:30.521Z,15.33
2018-03-28T00:02:57.689Z,16.07
2018-03-28T00:05:25.108Z,20.63
2018-03-28T00:07:52.322Z,20.93
2018-03-28T00:10:19.734Z,19.90
2018-03-28T00:12:47.177Z,21.70
2018-03-28T00:15:14.685Z,21.23
2018-03-28T00:17:41.965Z,16.20
2018-03-28T00:20:09.180Z,16.80
2018-03-28T00:22:36.393Z,19.67
2018-03-28T00:25:03.554Z,19.10
2018-03-28T00:27:31.600Z,19.67
2018-03-28T00:29:59.140Z,18.27
2018-03-28T00:32:26.374Z,17.30
2018-03-28T00:34:54.246Z,16.57
2018-03-28T00:37:24.785Z,17.47
2018-03-28T00:39:52.090Z,17.27
2018-03-28T00:42:19.142Z,17.57
2018-03-28T00:44:46.250Z,15.37
2018-03-28T00:47:13.582Z,18.63
2018-03-28T00:49:40.642Z,17.90
2018-03-28T00:52:07.723Z,17.47
2018-03-28T00:57:23.406Z,20.98
2018-03-28T00:59:50.599Z,16.60
2018-03-28T01:02:17.748Z,17.43
2018-03-28T01:04:45.017Z,15.53
2018-03-28T01:07:12.098Z,18.23
2018-03-28T01:09:39.325Z,17.80
2018-03-28T01:12:06.538Z,22.63
2018-03-28T01:14:33.841Z,20.57
2018-03-28T01:17:05.045Z,19.40
2018-03-28T01:19:32.270Z,18.27
2018-03-28T01:21:59.448Z,17.53
2018-03-28T01:24:26.610Z,22.57
2018-03-28T01:26:56.990Z,32.97
2018-03-28T01:29:24.218Z,19.07
2018-03-28T01:31:51.437Z,16.30
2018-03-28T01:34:18.737Z,15.60
2018-03-28T01:36:48.902Z,17.97
2018-03-28T01:39:16.854Z,18.70
2018-03-28T01:41:44.161Z,21.43
2018-03-28T01:44:11.386Z,20.17
2018-03-28T01:46:39.620Z,20.47
2018-03-28T01:49:06.795Z,28.97
2018-03-28T01:51:34.029Z,30.70
2018-03-28T01:54:01.261Z,29.77
2018-03-28T01:56:29.634Z,19.10
2018-03-28T01:58:56.817Z,18.63
2018-03-28T02:01:24.096Z,21.53
2018-03-28T02:03:51.328Z,21.20
2018-03-28T02:06:19.700Z,20.50
2018-03-28T02:08:47.689Z,20.70
2018-03-28T02:11:14.999Z,18.67
2018-03-28T02:13:42.276Z,19.43
2018-03-28T02:16:09.713Z,18.47
2018-03-28T02:18:36.893Z,20.57
2018-03-28T02:21:04.060Z,21.83
2018-03-28T02:23:31.283Z,21.00
2018-03-28T02:26:02.159Z,18.80
2018-03-28T02:28:29.462Z,18.93
2018-03-28T02:30:56.650Z,18.80
2018-03-28T02:33:23.766Z,18.63
2018-03-28T02:35:51.996Z,20.10
2018-03-28T02:38:19.231Z,19.60
2018-03-28T02:40:46.469Z,18.20
2018-03-28T02:43:13.610Z,18.83
2018-03-28T02:45:47.134Z,19.37
2018-03-28T02:48:14.255Z,19.10
2018-03-28T02:50:41.437Z,18.97
2018-03-28T02:53:08.736Z,18.93
2018-03-28T02:55:35.948Z,18.53
2018-03-28T02:58:03.238Z,18.90
2018-03-28T03:00:30.556Z,18.83
2018-03-28T03:02:57.826Z,20.27
2018-03-28T03:05:26.022Z,19.80
2018-03-28T03:07:53.301Z,18.37
2018-03-28T03:10:20.575Z,18.40
2018-03-28T03:12:47.842Z,19.87
2018-03-28T03:15:18.124Z,18.03
2018-03-28T03:17:45.378Z,18.60
2018-03-28T03:20:12.674Z,18.60
2018-03-28T03:26:13.578Z,19.07
2018-03-28T03:28:40.716Z,17.57
2018-03-28T03:31:07.957Z,18.50
2018-03-28T03:33:35.447Z,19.97
2018-03-28T03:36:03.550Z,19.50
2018-03-28T03:38:30.785Z,19.40
2018-03-28T03:40:58.082Z,23.20
2018-03-28T03:43:25.378Z,23.50
2018-03-28T03:45:56.821Z,18.53
2018-03-28T03:48:24.058Z,28.67
2018-03-28T03:50:51.368Z,24.67
2018-03-28T03:53:18.469Z,17.30
2018-03-28T03:55:46.698Z,18.43
2018-03-28T03:58:13.886Z,20.73
2018-03-28T04:00:41.002Z,23.10
2018-03-28T04:03:09.058Z,20.20
2018-03-28T04:05:36.226Z,20.67
2018-03-28T04:08:03.361Z,20.90
2018-03-28T04:10:30.594Z,21.97
2018-03-28T04:12:57.790Z,19.97
2018-03-28T04:15:28.808Z,20.30
2018-03-28T04:17:56.069Z,20.60
2018-03-28T04:20:24.015Z,20.37
2018-03-28T04:22:51.693Z,18.53
2018-03-28T04:25:19.247Z,21.07
2018-03-28T04:27:47.231Z,22.80
2018-03-28T04:30:14.578Z,22.30
2018-03-28T04:32:42.360Z,26.07
2018-03-28T04:35:15.449Z,24.50
2018-03-28T04:37:42.498Z,31.07
2018-03-28T04:40:09.814Z,28.33
2018-03-28T04:42:36.988Z,30.47
2018-03-28T04:45:07.182Z,29.73
2018-03-28T04:47:34.394Z,22.53
2018-03-28T04:50:01.654Z,25.53
2018-03-28T04:52:43.659Z,27.13
2018-03-28T04:55:10.948Z,23.90
2018-03-28T04:57:38.049Z,27.03
2018-03-28T05:00:05.077Z,18.77
2018-03-28T05:02:32.270Z,18.07
2018-03-28T05:05:02.825Z,19.77
2018-03-28T05:07:30.878Z,20.77
2018-03-28T05:09:58.066Z,23.10
2018-03-28T05:12:25.259Z,21.50
2018-03-28T05:14:55.623Z,22.60
2018-03-28T05:17:22.842Z,22.17
2018-03-28T05:19:50.050Z,18.20
2018-03-28T05:22:17.045Z,24.43
2018-03-28T05:24:45.390Z,27.93
2018-03-28T05:27:12.625Z,22.40
2018-03-28T05:29:39.758Z,25.03
2018-03-28T05:32:06.984Z,26.97
2018-03-28T05:34:34.602Z,26.50
2018-03-28T05:37:01.894Z,27.60
2018-03-28T05:39:28.951Z,31.33
2018-03-28T05:41:56.031Z,32.10
2018-03-28T05:44:23.344Z,30.17
2018-03-28T05:46:50.842Z,33.00
2018-03-28T05:49:18.278Z,32.60
2018-03-28T05:51:45.496Z,33.50
2018-03-28T05:54:12.820Z,29.30
2018-03-28T05:56:43.943Z,27.73
2018-03-28T05:59:11.204Z,26.13
2018-03-28T06:01:38.466Z,27.70
2018-03-28T06:04:06.614Z,31.57
2018-03-28T06:06:35.214Z,22.00
2018-03-28T06:09:02.273Z,20.90
2018-03-28T06:11:29.584Z,19.97
2018-03-28T06:13:56.957Z,21.17
2018-03-28T06:16:24.313Z,20.57
2018-03-28T06:18:51.496Z,21.13
2018-03-28T06:21:18.908Z,21.93
2018-03-28T06:23:45.930Z,21.47
2018-03-28T06:26:13.347Z,23.00
2018-03-28T06:28:40.625Z,27.07
2018-03-28T06:31:07.966Z,32.40
2018-03-28T06:33:35.210Z,31.37
2018-03-28T06:36:03.585Z,29.87
2018-03-28T06:38:30.877Z,35.20
2018-03-28T06:40:58.042Z,38.40
2018-03-28T06:43:25.347Z,38.60
2018-03-28T06:45:52.670Z,34.60
2018-03-28T06:48:19.934Z,35.77
2018-03-28T06:50:47.371Z,35.33
2018-03-28T06:53:14.500Z,36.57
2018-03-28T06:55:42.833Z,39.30
2018-03-28T06:58:10.561Z,35.20
2018-03-28T07:00:37.781Z,32.00
2018-03-28T07:03:05.110Z,30.37
2018-03-28T07:05:32.889Z,31.20
2018-03-28T07:08:00.102Z,34.17
2018-03-28T07:10:27.376Z,34.53
2018-03-28T07:12:54.669Z,33.30
2018-03-28T07:15:22.990Z,33.97
2018-03-28T07:17:50.322Z,33.77
2018-03-28T07:20:17.396Z,36.53
2018-03-28T07:22:44.659Z,36.47
2018-03-28T07:25:15.738Z,34.07
2018-03-28T07:27:42.975Z,43.23
2018-03-28T07:30:10.013Z,41.23
2018-03-28T07:32:37.265Z,40.83
2018-03-28T07:35:05.438Z,39.33
2018-03-28T07:37:33.365Z,36.47
2018-03-28T07:40:00.431Z,41.17
2018-03-28T07:45:19.874Z,49.65
2018-03-28T07:47:47.089Z,39.17
2018-03-28T07:50:14.426Z,36.70
2018-03-28T07:52:41.590Z,41.77
2018-03-28T07:55:09.168Z,42.00
2018-03-28T07:57:36.879Z,45.03
2018-03-28T08:00:04.054Z,41.80
2018-03-28T08:02:31.400Z,37.33
2018-03-28T08:05:01.950Z,82.57
2018-03-28T08:07:29.240Z,47.00
2018-03-28T08:09:56.633Z,50.23
2018-03-28T08:12:24.582Z,39.73
2018-03-28T08:14:55.168Z,36.87
2018-03-28T08:17:22.406Z,35.23
2018-03-28T08:19:49.553Z,41.63
2018-03-28T08:22:16.745Z,41.83
2018-03-28T08:24:45.086Z,36.93
2018-03-28T08:27:12.206Z,40.43
2018-03-28T08:29:39.470Z,39.97
2018-03-28T08:32:07.449Z,44.03
2018-03-28T08:34:34.661Z,40.33
2018-03-28T08:37:01.957Z,39.73
2018-03-28T08:39:29.210Z,33.10
2018-03-28T08:41:56.689Z,33.80
2018-03-28T08:44:28.571Z,39.03
2018-03-28T08:46:55.909Z,38.20
2018-03-28T08:49:23.241Z,42.47
2018-03-28T08:51:50.420Z,36.80
2018-03-28T08:54:18.974Z,34.97
2018-03-28T08:56:46.173Z,36.53
2018-03-28T08:59:13.414Z,35.23
2018-03-28T09:01:40.684Z,32.27
2018-03-28T09:04:11.923Z,32.20
2018-03-28T09:06:39.237Z,31.90
2018-03-28T09:09:07.328Z,32.67
2018-03-28T09:11:34.659Z,46.60
2018-03-28T09:14:05.421Z,30.23
2018-03-28T09:16:32.677Z,27.83
2018-03-28T09:19:00.031Z,28.23
2018-03-28T09:21:27.162Z,29.50
2018-03-28T09:24:04.124Z,28.30
2018-03-28T09:26:31.457Z,28.33
2018-03-28T09:28:58.613Z,28.93
2018-03-28T09:31:25.761Z,28.77
2018-03-28T09:33:57.878Z,27.57
2018-03-28T09:36:25.227Z,24.57
2018-03-28T09:38:52.501Z,25.87
2018-03-28T09:41:19.857Z,29.63
2018-03-28T09:43:46.994Z,33.37
2018-03-28T09:46:14.283Z,34.97
2018-03-28T09:48:41.599Z,54.40
2018-03-28T09:51:09.631Z,55.77
2018-03-28T09:53:37.316Z,48.33
2018-03-28T09:56:07.702Z,42.57
2018-03-28T09:58:34.835Z,38.97
2018-03-28T10:01:08.071Z,34.83
2018-03-28T10:03:41.186Z,33.63
2018-03-28T10:06:08.360Z,32.93
2018-03-28T10:08:35.473Z,34.80
2018-03-28T10:11:02.641Z,36.13
2018-03-28T10:13:29.772Z,38.47
2018-03-28T10:15:57.957Z,38.17
2018-03-28T10:18:25.221Z,32.40
2018-03-28T10:20:52.466Z,23.93
2018-03-28T10:23:19.619Z,28.60
2018-03-28T10:25:50.462Z,30.30
2018-03-28T10:28:17.873Z,34.43
2018-03-28T10:30:45.102Z,36.93
2018-03-28T10:33:12.448Z,42.53
2018-03-28T10:35:40.812Z,42.90
2018-03-28T10:38:08.101Z,45.73
2018-03-28T10:40:35.410Z,44.73
2018-03-28T10:43:02.638Z,45.17
2018-03-28T10:45:30.327Z,44.87
2018-03-28T10:47:58.250Z,38.93
2018-03-28T10:50:25.480Z,33.97
2018-03-28T10:52:52.853Z,29.10
2018-03-28T10:55:20.926Z,27.60
2018-03-28T10:57:48.086Z,31.67
2018-03-28T11:00:15.278Z,34.43
2018-03-28T11:02:43.175Z,33.23
2018-03-28T11:05:14.378Z,31.80
2018-03-28T11:07:41.566Z,34.40
2018-03-28T11:10:08.820Z,32.67
2018-03-28T11:12:36.130Z,32.57
2018-03-28T11:15:04.413Z,34.50
2018-03-28T11:17:31.570Z,34.90
2018-03-28T11:19:58.874Z,33.40
2018-03-28T11:22:26.081Z,22.53
2018-03-28T11:25:00.149Z,21.40
2018-03-28T11:27:27.298Z,17.57
2018-03-28T11:29:54.494Z,17.23
2018-03-28T11:32:21.687Z,18.63
2018-03-28T11:34:52.580Z,19.27
2018-03-28T11:37:20.443Z,20.50
2018-03-28T11:39:47.619Z,20.63
2018-03-28T11:42:15.212Z,24.37
2018-03-28T11:44:42.654Z,26.73
2018-03-28T11:47:10.549Z,25.00
2018-03-28T11:49:37.791Z,26.50
2018-03-28T11:52:04.909Z,28.50
2018-03-28T11:54:35.464Z,27.87
2018-03-28T11:57:02.587Z,29.73
2018-03-28T11:59:29.874Z,26.43
2018-03-28T12:01:57.117Z,26.90
2018-03-28T12:04:30.250Z,27.97
2018-03-28T12:06:57.444Z,27.73
2018-03-28T12:09:24.983Z,26.97
2018-03-28T12:11:52.059Z,28.43
2018-03-28T12:14:19.459Z,26.33
2018-03-28T12:16:46.677Z,28.43
2018-03-28T12:19:13.961Z,28.03
2018-03-28T12:21:41.089Z,26.27
2018-03-28T12:24:08.389Z,27.93
2018-03-28T12:26:35.672Z,25.27
2018-03-28T12:29:03.041Z,27.77
2018-03-28T12:31:30.293Z,27.90
2018-03-28T12:34:01.153Z,28.20
2018-03-28T12:36:28.289Z,27.87
2018-03-28T12:38:56.147Z,28.20
2018-03-28T12:41:23.217Z,29.50
2018-03-28T12:43:55.973Z,28.20
2018-03-28T12:46:24.069Z,28.80
2018-03-28T12:48:51.228Z,27.40
2018-03-28T12:51:18.524Z,29.10
2018-03-28T12:53:45.628Z,26.43
2018-03-28T12:56:12.778Z,25.93
2018-03-28T12:58:39.853Z,27.60
2018-03-28T13:01:07.182Z,26.20
2018-03-28T13:03:35.620Z,28.57
2018-03-28T13:06:02.805Z,28.77
2018-03-28T13:08:29.773Z,32.40
2018-03-28T13:10:57.685Z,34.33
2018-03-28T13:13:29.052Z,32.33
2018-03-28T13:15:56.389Z,30.60
2018-03-28T13:18:23.626Z,27.70
2018-03-28T13:20:50.929Z,32.07
2018-03-28T13:23:18.142Z,29.90
2018-03-28T13:25:45.269Z,29.13
2018-03-28T13:28:12.521Z,33.10
2018-03-28T13:30:40.533Z,27.27
2018-03-28T13:33:07.734Z,27.53
2018-03-28T13:35:34.927Z,29.67
2018-03-28T13:38:02.070Z,29.30
2018-03-28T13:40:29.353Z,29.90
2018-03-28T13:42:56.759Z,30.17
2018-03-28T13:45:25.284Z,30.70
2018-03-28T13:47:52.626Z,30.80
2018-03-28T13:50:19.904Z,30.63
2018-03-28T13:52:47.168Z,43.33
2018-03-28T13:55:18.265Z,39.40
2018-03-28T13:57:45.446Z,41.00
2018-03-28T14:00:13.361Z,38.37
2018-03-28T14:02:40.504Z,40.40
2018-03-28T14:05:12.058Z,40.43
2018-03-28T14:07:39.421Z,35.80
2018-03-28T14:10:06.718Z,40.07
2018-03-28T14:12:33.982Z,37.03
2018-03-28T14:15:01.332Z,39.97
2018-03-28T14:17:29.019Z,39.17
2018-03-28T14:19:56.275Z,40.53
2018-03-28T14:22:23.495Z,40.97
2018-03-28T14:24:51.906Z,39.77
2018-03-28T14:27:19.134Z,38.87
2018-03-28T14:29:46.420Z,39.10
2018-03-28T14:32:13.789Z,38.10
2018-03-28T14:34:44.155Z,40.10
2018-03-28T14:37:11.259Z,39.50
2018-03-28T14:39:38.637Z,40.10
2018-03-28T14:42:05.874Z,42.30
2018-03-28T14:44:36.491Z,42.17
2018-03-28T14:47:04.257Z,37.03
2018-03-28T14:49:31.868Z,40.87
2018-03-28T14:51:59.125Z,40.87
2018-03-28T14:54:32.662Z,40.67
2018-03-28T14:56:59.953Z,42.83
2018-03-28T14:59:27.952Z,41.30
2018-03-28T15:01:55.192Z,38.97
2018-03-28T15:04:28.885Z,38.77
2018-03-28T15:06:56.049Z,45.20
2018-03-28T15:09:23.368Z,43.20
2018-03-28T15:11:51.062Z,44.13
2018-03-28T15:14:21.936Z,46.03
2018-03-28T15:16:49.251Z,41.03
2018-03-28T15:19:16.542Z,43.03
2018-03-28T15:21:43.851Z,40.53
2018-03-28T15:24:14.979Z,48.37
2018-03-28T15:26:42.102Z,57.87
2018-03-28T15:29:09.417Z,44.37
2018-03-28T15:31:36.658Z,49.13
2018-03-28T15:34:04.990Z,46.60
2018-03-28T15:36:32.317Z,47.07
2018-03-28T15:38:59.495Z,44.17
2018-03-28T15:41:27.761Z,43.97
2018-03-28T15:43:56.985Z,41.53
2018-03-28T15:46:24.311Z,46.23
2018-03-28T15:48:51.523Z,43.93
2018-03-28T15:51:18.668Z,42.87
2018-03-28T15:53:56.730Z,44.97
2018-03-28T15:56:23.852Z,44.50
2018-03-28T15:58:51.789Z,41.97
2018-03-28T16:01:19.094Z,43.47
2018-03-28T16:03:48.194Z,46.07
2018-03-28T16:06:15.608Z,45.10
2018-03-28T16:08:43.036Z,46.63
2018-03-28T16:11:10.447Z,53.43
2018-03-28T16:13:40.899Z,45.43
2018-03-28T16:16:08.480Z,46.63
2018-03-28T16:18:35.762Z,45.27
2018-03-28T16:21:02.969Z,45.27
2018-03-28T16:23:35.975Z,42.13
2018-03-28T16:26:03.154Z,45.63
2018-03-28T16:28:30.658Z,45.60
2018-03-28T16:30:58.725Z,43.77
2018-03-28T16:33:26.985Z,50.40
2018-03-28T16:35:54.970Z,50.60
2018-03-28T16:38:22.303Z,53.60
2018-03-28T16:40:49.645Z,52.03
2018-03-28T16:43:17.937Z,56.10
2018-03-28T16:45:45.425Z,60.87
2018-03-28T16:48:13.465Z,67.33
2018-03-28T16:50:40.517Z,53.73
2018-03-28T16:53:12.657Z,53.77
2018-03-28T16:55:40.336Z,55.47
2018-03-28T16:58:07.620Z,59.17
2018-03-28T17:00:35.057Z,54.33
2018-03-28T17:03:06.209Z,52.73
2018-03-28T17:05:34.582Z,49.23
2018-03-28T17:08:02.318Z,49.17
2018-03-28T17:10:30.185Z,52.00
2018-03-28T17:12:58.436Z,52.37
2018-03-28T17:15:25.762Z,48.90
2018-03-28T17:17:53.480Z,49.50
2018-03-28T17:20:20.675Z,47.60
2018-03-28T17:22:53.174Z,48.53
2018-03-28T17:25:20.446Z,47.47
2018-03-28T17:27:47.682Z,47.83
2018-03-28T17:30:14.877Z,50.73
2018-03-28T17:32:42.457Z,49.17
2018-03-28T17:35:09.865Z,51.27
2018-03-28T17:37:38.846Z,53.97
2018-03-28T17:40:06.056Z,53.27
2018-03-28T17:42:33.347Z,54.30
2018-03-28T17:45:00.607Z,52.07
2018-03-28T17:47:27.838Z,54.00
2018-03-28T17:49:56.179Z,53.43
2018-03-28T17:52:23.374Z,55.83
2018-03-28T17:54:51.671Z,55.33
2018-03-28T17:57:20.258Z,59.37
2018-03-28T17:59:47.403Z,57.10
2018-03-28T18:02:16.283Z,52.40
2018-03-28T18:04:44.543Z,48.87
2018-03-28T18:07:11.880Z,59.77
2018-03-28T18:09:39.067Z,61.17
2018-03-28T18:12:06.362Z,47.97
2018-03-28T18:14:34.698Z,54.10
2018-03-28T18:17:02.046Z,50.40
2018-03-28T18:19:29.330Z,49.00
2018-03-28T18:21:56.630Z,52.63
2018-03-28T18:24:30.522Z,52.57
2018-03-28T18:26:57.692Z,50.77
2018-03-28T18:29:24.862Z,52.73
2018-03-28T18:31:52.673Z,55.87
2018-03-28T18:34:20.814Z,66.57
2018-03-28T18:36:48.037Z,62.07
2018-03-28T18:39:16.081Z,59.43
2018-03-28T18:41:43.538Z,66.00
2018-03-28T18:44:12.074Z,63.10
2018-03-28T18:46:39.291Z,60.50
2018-03-28T18:49:06.598Z,61.03
2018-03-28T18:51:33.923Z,62.53
2018-03-28T18:54:04.683Z,64.93
2018-03-28T18:56:32.727Z,71.27
2018-03-28T18:59:00.602Z,66.57
2018-03-28T19:01:28.321Z,65.00
2018-03-28T19:03:55.792Z,60.50
2018-03-28T19:06:23.122Z,59.47
2018-03-28T19:08:50.982Z,56.17
2018-03-28T19:11:18.862Z,53.97
2018-03-28T19:13:46.346Z,55.50
2018-03-28T19:16:13.578Z,59.70
2018-03-28T19:18:41.750Z,76.53
2018-03-28T19:21:09.131Z,63.23
2018-03-28T19:23:36.509Z,53.37
2018-03-28T19:26:03.923Z,57.00
2018-03-28T19:28:31.141Z,56.17
2018-03-28T19:30:58.467Z,58.37
2018-03-28T19:33:27.435Z,58.40
2018-03-28T19:35:54.675Z,59.77
2018-03-28T19:38:22.032Z,60.57
2018-03-28T19:40:49.290Z,113.73
2018-03-28T19:43:19.859Z,50.17
2018-03-28T19:45:46.957Z,46.97
2018-03-28T19:48:14.274Z,49.00
2018-03-28T19:50:41.543Z,63.03
2018-03-28T19:53:08.758Z,99.77
2018-03-28T19:55:36.594Z,60.40
2018-03-28T19:58:03.830Z,46.90
2018-03-28T20:00:30.920Z,44.27
2018-03-28T20:02:58.390Z,44.80
2018-03-28T20:05:25.680Z,43.53
2018-03-28T20:07:53.927Z,44.87
2018-03-28T20:10:21.172Z,42.83
2018-03-28T20:12:49.358Z,42.40
2018-03-28T20:15:16.578Z,44.50
2018-03-28T20:17:43.765Z,46.53
2018-03-28T20:20:10.970Z,48.47
2018-03-28T20:22:38.313Z,50.27
2018-03-28T20:25:05.642Z,51.33
2018-03-28T20:27:32.762Z,54.60
2018-03-28T20:30:00.132Z,56.70
2018-03-28T20:32:27.354Z,64.67
2018-03-28T20:34:54.573Z,61.93
2018-03-28T20:37:21.857Z,63.23
2018-03-28T20:39:49.674Z,59.47
2018-03-28T20:42:20.957Z,76.40
2018-03-28T20:44:48.203Z,68.43
2018-03-28T20:47:15.561Z,73.47
2018-03-28T20:49:42.718Z,73.13
2018-03-28T20:52:17.259Z,71.30
2018-03-28T20:54:44.549Z,74.57
2018-03-28T20:57:12.081Z,68.43
2018-03-28T20:59:39.585Z,64.93
2018-03-28T21:02:06.777Z,63.60
2018-03-28T21:04:34.590Z,64.17
2018-03-28T21:07:01.800Z,62.17
2018-03-28T21:09:29.122Z,66.83
2018-03-28T21:11:56.374Z,62.50
2018-03-28T21:14:29.759Z,67.03
2018-03-28T21:16:56.986Z,69.77
2018-03-28T21:19:24.334Z,67.50
2018-03-28T21:21:51.548Z,65.03
2018-03-28T21:24:22.675Z,65.60
2018-03-28T21:26:49.882Z,69.97
2018-03-28T21:29:17.446Z,77.03
2018-03-28T21:31:44.628Z,81.13
2018-03-28T21:34:14.953Z,78.73
2018-03-28T21:36:42.255Z,93.40
2018-03-28T21:39:09.550Z,96.33
2018-03-28T21:41:36.733Z,86.40
2018-03-28T21:44:04.858Z,81.90
2018-03-28T21:46:32.189Z,73.87
2018-03-28T21:48:59.386Z,70.30
2018-03-28T21:51:26.580Z,78.37
2018-03-28T21:53:57.246Z,75.40
2018-03-28T21:56:24.433Z,78.70
2018-03-28T21:58:51.646Z,86.33
2018-03-28T22:01:18.865Z,83.23
2018-03-28T22:03:47.269Z,83.13
2018-03-28T22:06:14.469Z,69.77
2018-03-28T22:08:41.609Z,59.97
2018-03-28T22:11:08.693Z,58.43
2018-03-28T22:13:39.974Z,55.50
2018-03-28T22:16:07.092Z,49.30
2018-03-28T22:18:35.361Z,46.57
2018-03-28T22:21:02.414Z,45.70
2018-03-28T22:23:31.096Z,43.33
2018-03-28T22:25:58.330Z,38.80
2018-03-28T22:28:25.617Z,31.90
2018-03-28T22:30:52.642Z,32.23
2018-03-28T22:33:26.244Z,31.10
2018-03-28T22:35:53.409Z,32.97
2018-03-28T22:38:20.540Z,31.70
2018-03-28T22:40:47.575Z,30.83
2018-03-28T22:43:25.963Z,30.67
2018-03-28T22:45:53.287Z,31.50
2018-03-28T22:48:20.390Z,32.50
2018-03-28T22:50:47.621Z,32.73
2018-03-28T22:53:18.165Z,32.13
2018-03-28T22:55:45.345Z,31.63
2018-03-28T22:58:12.623Z,33.77
2018-03-28T23:00:39.925Z,32.03
2018-03-28T23:03:07.315Z,31.23
2018-03-28T23:05:34.456Z,31.23
2018-03-28T23:08:02.709Z,31.60
2018-03-28T23:10:29.830Z,31.77
2018-03-28T23:13:00.643Z,33.73
2018-03-28T23:15:27.838Z,32.53
2018-03-28T23:17:55.397Z,33.03
2018-03-28T23:20:22.521Z,34.23
2018-03-28T23:22:53.153Z,34.60
2018-03-28T23:25:20.221Z,35.30
2018-03-28T23:27:47.349Z,35.30
2018-03-28T23:30:14.496Z,35.37
2018-03-28T23:32:42.694Z,35.67
2018-03-28T23:35:09.994Z,33.43
2018-03-28T23:37:37.280Z,34.37
2018-03-28T23:40:04.385Z,34.87
2018-03-28T23:42:37.674Z,40.43
2018-03-28T23:45:04.732Z,41.03
2018-03-28T23:47:31.866Z,39.53
2018-03-28T23:49:59.076Z,35.13
2018-03-28T23:52:27.460Z,35.17
2018-03-28T23:54:55.498Z,34.67
2018-03-28T23:57:22.813Z,33.50
2018-03-28T23:59:50.064Z,35.30
